createdAt,value
2023-02-11T00:01:27.386Z,3.55
2023-02-11T00:03:59.084Z,3.73
2023-02-11T00:06:27.999Z,3.95
2023-02-11T00:08:56.123Z,3.53
2023-02-11T00:11:26.493Z,3.30
2023-02-11T00:13:53.845Z,3.90
2023-02-11T00:16:21.381Z,3.85
2023-02-11T00:18:50.196Z,3.47
2023-02-11T00:21:20.379Z,4.10
2023-02-11T00:23:48.168Z,4.30
2023-02-11T00:26:28.045Z,4.38
2023-02-11T00:28:55.219Z,4.60
2023-02-11T00:31:24.149Z,3.88
2023-02-11T00:33:51.806Z,4.10
2023-02-11T00:36:25.183Z,4.53
2023-02-11T00:38:54.539Z,4.13
2023-02-11T00:41:22.336Z,4.38
2023-02-11T00:43:50.245Z,4.70
2023-02-11T00:46:19.919Z,4.47
2023-02-11T00:48:47.154Z,4.10
2023-02-11T00:51:14.528Z,5.18
2023-02-11T00:53:41.744Z,5.20
2023-02-11T00:56:09.054Z,4.97
2023-02-11T00:58:37.584Z,5.18
2023-02-11T01:01:05.483Z,4.63
2023-02-11T01:03:32.748Z,4.95
2023-02-11T01:06:00.206Z,4.88
2023-02-11T01:08:27.524Z,5.25
2023-02-11T01:11:07.414Z,5.20
2023-02-11T01:13:37.240Z,5.07
2023-02-11T01:16:07.612Z,5.72
2023-02-11T01:18:35.706Z,5.55
2023-02-11T01:21:03.168Z,5.90
2023-02-11T01:23:30.331Z,5.90
2023-02-11T01:25:57.524Z,6.32
2023-02-11T01:28:26.874Z,5.75
2023-02-11T01:30:54.481Z,6.28
2023-02-11T01:33:23.137Z,6.57
2023-02-11T01:35:50.874Z,7.10
2023-02-11T01:38:26.080Z,7.80
2023-02-11T01:40:58.644Z,7.93
2023-02-11T01:43:30.461Z,8.35
2023-02-11T01:46:20.224Z,9.07
2023-02-11T01:48:51.201Z,7.53
2023-02-11T01:51:31.175Z,7.47
2023-02-11T01:54:18.792Z,7.97
2023-02-11T01:57:08.700Z,9.27
2023-02-11T01:59:47.595Z,8.05
2023-02-11T02:02:20.378Z,8.47
2023-02-11T02:04:57.422Z,8.73
2023-02-11T02:07:44.920Z,9.23
2023-02-11T02:10:18.801Z,8.38
2023-02-11T02:12:46.794Z,6.83
2023-02-11T02:15:27.322Z,8.63
2023-02-11T02:18:00.624Z,7.63
2023-02-11T02:21:03.214Z,8.18
2023-02-11T02:23:42.772Z,7.40
2023-02-11T02:26:46.697Z,7.35
2023-02-11T02:29:47.607Z,7.13
2023-02-11T02:33:21.937Z,7.82
2023-02-11T02:35:52.424Z,7.35
2023-02-11T02:38:36.105Z,7.85
2023-02-11T02:41:13.506Z,7.90
2023-02-11T02:43:44.666Z,7.57
2023-02-11T02:46:18.563Z,7.45
2023-02-11T02:48:49.356Z,8.07
2023-02-11T02:51:35.800Z,9.73
2023-02-11T02:54:23.129Z,9.05
2023-02-11T02:57:07.341Z,9.30
2023-02-11T02:59:48.955Z,9.60
2023-02-11T03:02:57.091Z,10.10
2023-02-11T03:06:04.239Z,9.98
2023-02-11T03:08:38.961Z,10.57
2023-02-11T03:11:07.551Z,10.60
2023-02-11T03:13:37.387Z,9.80
2023-02-11T03:16:25.110Z,10.43
2023-02-11T03:19:13.669Z,11.90
2023-02-11T03:21:43.272Z,10.90
2023-02-11T03:24:34.215Z,11.05
2023-02-11T03:27:19.945Z,11.70
2023-02-11T03:29:59.247Z,10.88
2023-02-11T03:32:35.461Z,12.70
2023-02-11T03:35:10.147Z,11.80
2023-02-11T03:37:55.937Z,12.30
2023-02-11T03:40:29.633Z,12.73
2023-02-11T03:43:00.927Z,12.27
2023-02-11T03:45:28.988Z,13.13
2023-02-11T03:48:05.482Z,11.65
2023-02-11T03:50:36.090Z,12.48
2023-02-11T03:53:04.351Z,12.25
2023-02-11T03:55:36.702Z,11.73
2023-02-11T03:58:03.975Z,11.38
2023-02-11T04:00:33.775Z,11.70
2023-02-11T04:03:01.227Z,11.52
2023-02-11T04:05:28.554Z,11.80
2023-02-11T04:07:55.786Z,11.85
2023-02-11T04:10:23.040Z,11.50
2023-02-11T04:12:50.321Z,11.20
2023-02-11T04:15:17.662Z,12.02
2023-02-11T04:17:44.859Z,12.88
2023-02-11T04:20:12.306Z,11.88
2023-02-11T04:22:39.687Z,12.52
2023-02-11T04:25:07.587Z,13.20
2023-02-11T04:27:34.865Z,13.45
2023-02-11T04:30:02.562Z,12.80
2023-02-11T04:32:29.765Z,13.10
2023-02-11T04:34:56.978Z,13.70
2023-02-11T04:37:24.136Z,13.95
2023-02-11T04:39:51.320Z,13.60
2023-02-11T04:42:18.487Z,14.35
2023-02-11T04:44:45.656Z,13.88
2023-02-11T04:47:15.192Z,15.00
2023-02-11T04:49:42.517Z,14.05
2023-02-11T04:52:09.904Z,14.10
2023-02-11T04:54:37.250Z,14.38
2023-02-11T04:57:04.448Z,16.00
2023-02-11T04:59:31.702Z,15.40
2023-02-11T05:01:58.968Z,14.95
2023-02-11T05:04:26.203Z,14.57
2023-02-11T05:06:53.422Z,15.73
2023-02-11T05:09:20.692Z,15.23
2023-02-11T05:11:48.612Z,14.32
2023-02-11T05:14:15.753Z,15.00
2023-02-11T05:16:43.058Z,16.42
2023-02-11T05:19:10.368Z,14.82
2023-02-11T05:21:37.587Z,15.98
2023-02-11T05:24:05.145Z,16.50
2023-02-11T05:26:32.679Z,16.35
2023-02-11T05:28:59.846Z,16.55
2023-02-11T05:31:27.116Z,16.77
2023-02-11T05:33:54.298Z,16.42
2023-02-11T05:36:21.645Z,16.73
2023-02-11T05:38:48.971Z,16.85
2023-02-11T05:41:16.708Z,16.27
2023-02-11T05:43:43.942Z,17.25
2023-02-11T05:46:11.114Z,16.40
2023-02-11T05:48:38.321Z,16.65
2023-02-11T05:51:05.616Z,15.67
2023-02-11T05:53:32.792Z,17.10
2023-02-11T05:56:00.215Z,18.17
2023-02-11T05:58:27.550Z,16.30
2023-02-11T06:00:54.757Z,15.27
2023-02-11T06:03:21.988Z,16.17
2023-02-11T06:05:49.531Z,17.23
2023-02-11T06:08:16.955Z,16.00
2023-02-11T06:10:46.986Z,15.53
2023-02-11T06:13:14.265Z,16.80
2023-02-11T06:15:41.463Z,15.90
2023-02-11T06:18:09.573Z,16.98
2023-02-11T06:20:37.317Z,16.53
2023-02-11T06:23:04.426Z,16.05
2023-02-11T06:25:31.747Z,15.27
2023-02-11T06:27:58.991Z,15.80
2023-02-11T06:30:26.198Z,16.10
2023-02-11T06:32:54.652Z,16.50
2023-02-11T06:35:21.821Z,15.40
2023-02-11T06:37:49.666Z,14.73
2023-02-11T06:40:16.991Z,17.52
2023-02-11T06:42:44.353Z,17.15
2023-02-11T06:45:13.178Z,15.88
2023-02-11T06:47:40.781Z,16.20
2023-02-11T06:50:10.661Z,17.03
2023-02-11T06:52:37.976Z,16.40
2023-02-11T06:55:05.491Z,16.63
2023-02-11T06:57:32.814Z,16.92
2023-02-11T06:59:59.964Z,14.05
2023-02-11T07:02:27.238Z,14.65
2023-02-11T07:04:54.417Z,16.92
2023-02-11T07:07:21.621Z,15.90
2023-02-11T07:09:48.900Z,16.73
2023-02-11T07:12:16.110Z,15.90
2023-02-11T07:14:43.258Z,17.02
2023-02-11T07:17:11.394Z,17.08
2023-02-11T07:19:38.625Z,16.38
2023-02-11T07:22:05.912Z,16.52
2023-02-11T07:24:33.084Z,16.40
2023-02-11T07:27:00.252Z,15.53
2023-02-11T07:29:27.521Z,16.55
2023-02-11T07:31:54.683Z,16.13
2023-02-11T07:34:21.947Z,16.23
2023-02-11T07:36:49.489Z,15.68
2023-02-11T07:39:16.697Z,15.48
2023-02-11T07:41:47.641Z,14.95
2023-02-11T07:44:15.330Z,14.70
2023-02-11T07:46:44.667Z,14.82
2023-02-11T07:49:12.276Z,15.65
2023-02-11T07:51:39.602Z,13.65
2023-02-11T07:54:07.552Z,15.43
2023-02-11T07:56:34.767Z,14.52
2023-02-11T07:59:03.408Z,15.37
2023-02-11T08:01:30.919Z,14.60
2023-02-11T08:03:59.617Z,13.98
2023-02-11T08:06:29.413Z,13.65
2023-02-11T08:08:56.550Z,13.93
2023-02-11T08:11:28.661Z,13.87
2023-02-11T08:13:56.743Z,14.10
2023-02-11T08:16:27.403Z,14.63
2023-02-11T08:18:57.543Z,13.82
2023-02-11T08:21:25.264Z,14.00
2023-02-11T08:23:52.505Z,13.27
2023-02-11T08:26:26.020Z,13.32
2023-02-11T08:28:55.096Z,11.98
2023-02-11T08:31:25.453Z,13.40
2023-02-11T08:33:54.480Z,13.15
2023-02-11T08:36:25.003Z,13.25
2023-02-11T08:38:58.675Z,12.35
2023-02-11T08:41:30.068Z,13.65
2023-02-11T08:43:58.097Z,11.40
2023-02-11T08:46:25.707Z,11.68
2023-02-11T08:48:53.444Z,13.32
2023-02-11T08:51:24.028Z,12.60
2023-02-11T08:53:51.856Z,13.30
2023-02-11T08:56:20.098Z,12.52
2023-02-11T08:58:47.908Z,12.55
2023-02-11T09:01:17.928Z,12.15
2023-02-11T09:03:45.425Z,12.75
2023-02-11T09:06:13.923Z,11.93
2023-02-11T09:08:46.322Z,12.57
2023-02-11T09:11:13.931Z,12.60
2023-02-11T09:13:42.884Z,12.30
2023-02-11T09:16:22.591Z,11.10
2023-02-11T09:18:50.519Z,11.73
2023-02-11T09:21:19.088Z,11.23
2023-02-11T09:23:47.735Z,11.32
2023-02-11T09:26:14.975Z,11.80
2023-02-11T09:28:42.168Z,10.88
2023-02-11T09:31:11.970Z,11.00
2023-02-11T09:33:42.074Z,10.75
2023-02-11T09:36:09.519Z,10.90
2023-02-11T09:38:36.755Z,11.32
2023-02-11T09:41:07.613Z,11.32
2023-02-11T09:43:55.952Z,11.15
2023-02-11T09:46:25.816Z,10.37
2023-02-11T09:48:55.361Z,10.85
2023-02-11T09:51:39.622Z,9.55
2023-02-11T09:54:37.367Z,10.57
2023-02-11T09:57:06.354Z,10.30
2023-02-11T09:59:33.822Z,7.80
2023-02-11T10:02:12.723Z,9.65
2023-02-11T10:04:39.992Z,9.45
2023-02-11T10:07:26.950Z,9.27
2023-02-11T10:10:25.892Z,9.13
2023-02-11T10:13:19.909Z,7.78
2023-02-11T10:16:06.021Z,9.40
2023-02-11T10:18:59.466Z,7.20
2023-02-11T10:21:58.728Z,6.93
2023-02-11T10:24:28.931Z,7.60
2023-02-11T10:26:56.205Z,7.47
2023-02-11T10:29:44.098Z,6.70
2023-02-11T10:32:49.945Z,8.10
2023-02-11T10:35:21.398Z,7.13
2023-02-11T10:37:49.712Z,7.50
2023-02-11T10:40:23.785Z,7.30
2023-02-11T10:42:55.661Z,7.63
2023-02-11T10:45:26.085Z,6.95
2023-02-11T10:47:53.395Z,6.40
2023-02-11T10:50:25.299Z,7.25
2023-02-11T10:52:53.043Z,7.60
2023-02-11T10:55:24.368Z,8.35
2023-02-11T10:57:58.191Z,6.07
2023-02-11T11:00:28.392Z,6.87
2023-02-11T11:02:58.870Z,7.50
2023-02-11T11:05:58.173Z,7.20
2023-02-11T11:08:40.212Z,7.65
2023-02-11T11:11:10.516Z,8.00
2023-02-11T11:13:41.714Z,7.25
2023-02-11T11:16:34.161Z,8.07
2023-02-11T11:19:07.290Z,7.17
2023-02-11T11:21:45.621Z,7.35
2023-02-11T11:24:20.858Z,7.50
2023-02-11T11:26:54.405Z,7.63
2023-02-11T11:29:33.435Z,8.02
2023-02-11T11:32:25.558Z,7.35
2023-02-11T11:35:00.293Z,7.00
2023-02-11T11:37:33.386Z,7.07
2023-02-11T11:40:29.774Z,7.22
2023-02-11T11:43:14.210Z,6.85
2023-02-11T11:45:56.871Z,7.32
2023-02-11T11:48:37.054Z,8.15
2023-02-11T11:51:11.058Z,7.47
2023-02-11T11:53:45.457Z,7.32
2023-02-11T11:56:20.648Z,7.68
2023-02-11T11:58:48.905Z,7.87
2023-02-11T12:01:27.192Z,6.90
2023-02-11T12:04:21.382Z,7.53
2023-02-11T12:07:17.366Z,7.20
2023-02-11T12:10:02.247Z,6.00
2023-02-11T12:13:11.861Z,7.97
2023-02-11T12:16:13.861Z,8.13
2023-02-11T12:18:44.923Z,6.60
2023-02-11T12:21:25.469Z,7.03
2023-02-11T12:24:23.747Z,8.02
2023-02-11T12:26:59.639Z,7.72
2023-02-11T12:29:45.476Z,7.10
2023-02-11T12:32:21.594Z,7.03
2023-02-11T12:35:21.245Z,7.57
2023-02-11T12:38:15.745Z,7.13
2023-02-11T12:40:48.433Z,7.05
2023-02-11T12:43:24.864Z,6.43
2023-02-11T12:46:10.260Z,6.32
2023-02-11T12:49:02.567Z,6.75
2023-02-11T12:51:54.660Z,6.53
2023-02-11T12:54:25.546Z,5.93
2023-02-11T12:57:11.241Z,6.80
2023-02-11T12:59:55.341Z,6.70
2023-02-11T13:02:37.727Z,6.73
2023-02-11T13:05:23.570Z,6.67
2023-02-11T13:07:53.449Z,6.82
2023-02-11T13:10:34.494Z,6.28
2023-02-11T13:13:16.996Z,6.75
2023-02-11T13:15:55.037Z,6.43
2023-02-11T13:18:36.973Z,6.60
2023-02-11T13:21:16.624Z,5.63
2023-02-11T13:24:19.435Z,6.10
2023-02-11T13:27:03.542Z,6.05
2023-02-11T13:29:38.735Z,6.07
2023-02-11T13:32:07.750Z,5.80
2023-02-11T13:34:40.929Z,6.30
2023-02-11T13:37:26.669Z,6.72
2023-02-11T13:40:19.579Z,6.65
2023-02-11T13:43:02.204Z,6.45
2023-02-11T13:45:37.470Z,6.30
2023-02-11T13:48:38.826Z,5.73
2023-02-11T13:51:09.926Z,6.60
2023-02-11T13:53:56.410Z,5.88
2023-02-11T13:56:34.152Z,6.35
2023-02-11T13:59:05.437Z,6.63
2023-02-11T14:01:39.924Z,6.47
2023-02-11T14:04:41.614Z,6.40
2023-02-11T14:07:49.540Z,6.20
2023-02-11T14:10:41.442Z,5.72
2023-02-11T14:13:32.344Z,6.20
2023-02-11T14:16:35.619Z,6.00
2023-02-11T14:19:05.967Z,5.25
2023-02-11T14:21:41.526Z,5.65
2023-02-11T14:24:12.918Z,5.90
2023-02-11T14:26:56.423Z,6.20
2023-02-11T14:29:42.303Z,5.80
2023-02-11T14:32:27.140Z,5.82
2023-02-11T14:35:16.066Z,5.40
2023-02-11T14:37:55.723Z,5.70
2023-02-11T14:40:40.335Z,5.50
2023-02-11T14:43:47.909Z,6.30
2023-02-11T14:46:17.496Z,5.40
2023-02-11T14:48:48.637Z,6.30
2023-02-11T14:51:31.664Z,5.60
2023-02-11T14:54:22.737Z,5.80
2023-02-11T14:57:13.683Z,5.85
2023-02-11T15:00:02.241Z,6.00
2023-02-11T15:02:37.959Z,5.43
2023-02-11T15:05:26.016Z,5.78
2023-02-11T15:07:55.838Z,5.97
2023-02-11T15:10:28.930Z,5.80
2023-02-11T15:12:57.719Z,5.63
2023-02-11T15:15:26.102Z,5.50
2023-02-11T15:17:54.108Z,5.95
2023-02-11T15:20:29.661Z,5.60
2023-02-11T15:23:02.698Z,5.85
2023-02-11T15:25:32.374Z,5.72
2023-02-11T15:28:01.505Z,5.53
2023-02-11T15:30:33.864Z,5.65
2023-02-11T15:33:05.292Z,5.53
2023-02-11T15:35:38.330Z,5.55
2023-02-11T15:38:06.787Z,5.22
2023-02-11T15:40:36.334Z,5.10
2023-02-11T15:43:07.881Z,5.82
2023-02-11T15:45:52.373Z,5.70
2023-02-11T15:48:28.060Z,6.05
2023-02-11T15:50:58.760Z,5.97
2023-02-11T15:53:36.912Z,4.97
2023-02-11T15:56:43.032Z,5.10
2023-02-11T15:59:38.860Z,5.35
2023-02-11T16:02:20.764Z,5.85
2023-02-11T16:04:59.553Z,5.38
2023-02-11T16:07:41.802Z,5.97
2023-02-11T16:10:21.560Z,6.13
2023-02-11T16:13:07.967Z,6.20
2023-02-11T16:15:35.176Z,5.57
2023-02-11T16:18:06.062Z,5.25
2023-02-11T16:20:34.104Z,6.40
2023-02-11T16:23:02.376Z,5.55
2023-02-11T16:25:29.593Z,5.75
2023-02-11T16:27:56.825Z,6.10
2023-02-11T16:30:31.521Z,5.78
2023-02-11T16:32:58.693Z,6.03
2023-02-11T16:35:26.162Z,5.38
2023-02-11T16:37:54.874Z,5.68
2023-02-11T16:40:23.487Z,6.18
2023-02-11T16:42:52.401Z,5.40
2023-02-11T16:45:19.756Z,5.50
2023-02-11T16:47:47.174Z,5.90
2023-02-11T16:50:25.303Z,5.88
2023-02-11T16:52:52.719Z,5.60
2023-02-11T16:55:21.959Z,5.47
2023-02-11T16:57:49.643Z,5.43
2023-02-11T17:00:20.208Z,5.75
2023-02-11T17:02:47.432Z,6.00
2023-02-11T17:05:20.733Z,5.95
2023-02-11T17:07:48.061Z,6.50
2023-02-11T17:10:18.303Z,6.50
2023-02-11T17:12:45.813Z,6.40
2023-02-11T17:15:13.071Z,6.32
2023-02-11T17:17:40.339Z,5.57
2023-02-11T17:20:09.335Z,5.95
2023-02-11T17:22:36.462Z,5.35
2023-02-11T17:25:03.752Z,6.15
2023-02-11T17:27:30.948Z,6.88
2023-02-11T17:29:58.234Z,6.63
2023-02-11T17:32:25.530Z,6.07
2023-02-11T17:34:53.700Z,6.18
2023-02-11T17:37:20.976Z,6.32
2023-02-11T17:39:49.354Z,6.72
2023-02-11T17:42:19.074Z,6.55
2023-02-11T17:44:46.547Z,7.35
2023-02-11T17:47:13.829Z,7.05
2023-02-11T17:49:41.403Z,6.90
2023-02-11T17:52:08.912Z,7.10
2023-02-11T17:54:37.780Z,6.70
2023-02-11T17:57:05.016Z,7.07
2023-02-11T17:59:35.366Z,7.50
2023-02-11T18:02:04.081Z,7.82
2023-02-11T18:04:32.117Z,7.32
2023-02-11T18:06:59.424Z,7.57
2023-02-11T18:09:27.050Z,8.20
2023-02-11T18:11:54.407Z,7.72
2023-02-11T18:14:22.424Z,7.75
2023-02-11T18:16:51.471Z,7.68
2023-02-11T18:19:19.695Z,8.27
2023-02-11T18:21:48.810Z,7.50
2023-02-11T18:24:16.568Z,7.65
2023-02-11T18:26:44.030Z,6.85
2023-02-11T18:29:11.740Z,7.38
2023-02-11T18:31:39.823Z,7.22
2023-02-11T18:34:07.745Z,6.85
2023-02-11T18:36:35.477Z,7.73
2023-02-11T18:39:03.648Z,6.97
2023-02-11T18:41:30.897Z,7.32
2023-02-11T18:43:58.708Z,7.67
2023-02-11T18:46:26.026Z,7.75
2023-02-11T18:48:56.002Z,7.78
2023-02-11T18:51:24.096Z,8.05
2023-02-11T18:53:51.365Z,8.25
2023-02-11T18:56:21.763Z,7.65
2023-02-11T18:58:51.273Z,7.28
2023-02-11T19:01:21.310Z,7.03
2023-02-11T19:03:48.665Z,6.88
2023-02-11T19:06:17.840Z,7.40
2023-02-11T19:08:45.421Z,8.82
2023-02-11T19:11:13.646Z,7.32
2023-02-11T19:13:40.775Z,6.90
2023-02-11T19:16:11.211Z,7.03
2023-02-11T19:18:38.886Z,7.13
2023-02-11T19:21:11.009Z,7.97
2023-02-11T19:23:38.601Z,7.68
2023-02-11T19:26:06.501Z,7.78
2023-02-11T19:28:35.364Z,6.75
2023-02-11T19:31:07.954Z,7.15
2023-02-11T19:33:35.379Z,7.30
2023-02-11T19:36:05.300Z,7.27
2023-02-11T19:38:32.531Z,7.40
2023-02-11T19:41:00.136Z,7.53
2023-02-11T19:43:27.483Z,7.90
2023-02-11T19:45:56.603Z,7.13
2023-02-11T19:48:24.857Z,7.22
2023-02-11T19:50:52.162Z,7.57
2023-02-11T19:53:19.416Z,7.78
2023-02-11T19:55:47.110Z,7.50
2023-02-11T19:58:15.403Z,6.60
2023-02-11T20:00:43.231Z,6.90
2023-02-11T20:03:10.463Z,7.13
2023-02-11T20:05:42.242Z,6.80
2023-02-11T20:08:09.400Z,6.38
2023-02-11T20:10:36.562Z,6.82
2023-02-11T20:13:03.909Z,6.87
2023-02-11T20:15:31.321Z,7.20
2023-02-11T20:17:58.486Z,6.80
2023-02-11T20:20:25.736Z,6.97
2023-02-11T20:22:52.931Z,6.70
2023-02-11T20:25:20.161Z,6.63
2023-02-11T20:27:47.377Z,6.80
2023-02-11T20:30:14.997Z,7.47
2023-02-11T20:32:42.328Z,7.18
2023-02-11T20:35:12.148Z,7.05
2023-02-11T20:37:41.093Z,7.38
2023-02-11T20:40:09.774Z,7.28
2023-02-11T20:42:36.967Z,7.10
2023-02-11T20:45:04.332Z,7.20
2023-02-11T20:47:31.577Z,7.07
2023-02-11T20:49:58.956Z,7.15
2023-02-11T20:52:26.187Z,7.00
2023-02-11T20:54:53.313Z,7.32
2023-02-11T20:57:20.538Z,8.48
2023-02-11T20:59:47.792Z,7.53
2023-02-11T21:02:15.345Z,7.20
2023-02-11T21:04:42.627Z,7.78
2023-02-11T21:07:09.877Z,7.28
2023-02-11T21:09:37.276Z,9.60
2023-02-11T21:12:05.323Z,10.40
2023-02-11T21:14:33.408Z,8.98
2023-02-11T21:17:00.640Z,9.20
2023-02-11T21:19:27.962Z,7.90
2023-02-11T21:21:57.154Z,7.20
2023-02-11T21:24:24.359Z,7.75
2023-02-11T21:26:51.616Z,7.68
2023-02-11T21:29:18.789Z,8.20
2023-02-11T21:31:46.224Z,7.57
2023-02-11T21:34:14.180Z,7.20
2023-02-11T21:36:41.460Z,8.20
2023-02-11T21:39:08.908Z,7.30
2023-02-11T21:41:36.311Z,8.03
2023-02-11T21:44:03.578Z,7.82
2023-02-11T21:46:31.665Z,7.70
2023-02-11T21:49:00.328Z,7.70
2023-02-11T21:51:28.225Z,8.20
2023-02-11T21:54:01.186Z,8.07
2023-02-11T21:56:30.111Z,7.93
2023-02-11T21:58:58.805Z,8.13
2023-02-11T22:01:29.506Z,8.77
2023-02-11T22:03:57.141Z,8.50
2023-02-11T22:06:27.503Z,8.45
2023-02-11T22:08:55.495Z,8.15
2023-02-11T22:11:23.425Z,8.18
2023-02-11T22:13:55.463Z,8.90
2023-02-11T22:16:23.255Z,9.38
2023-02-11T22:18:51.337Z,9.33
2023-02-11T22:21:21.852Z,9.18
2023-02-11T22:23:50.200Z,9.10
2023-02-11T22:26:22.564Z,9.27
2023-02-11T22:28:50.914Z,9.15
2023-02-11T22:31:36.405Z,9.38
2023-02-11T22:34:05.097Z,10.15
2023-02-11T22:36:40.869Z,10.02
2023-02-11T22:39:11.480Z,10.48
2023-02-11T22:41:40.430Z,9.50
2023-02-11T22:44:08.446Z,10.32
2023-02-11T22:46:36.088Z,10.40
2023-02-11T22:49:04.430Z,10.68
2023-02-11T22:51:32.556Z,10.52
2023-02-11T22:54:02.100Z,10.67
2023-02-11T22:56:31.095Z,11.05
2023-02-11T22:59:00.365Z,10.70
2023-02-11T23:01:29.060Z,10.32
2023-02-11T23:03:58.428Z,10.25
2023-02-11T23:06:25.627Z,10.25
2023-02-11T23:08:53.071Z,9.90
2023-02-11T23:11:26.191Z,10.37
2023-02-11T23:13:54.356Z,9.70
2023-02-11T23:16:24.491Z,10.40
2023-02-11T23:18:52.536Z,10.57
2023-02-11T23:21:26.779Z,11.17
2023-02-11T23:23:56.745Z,10.83
2023-02-11T23:26:24.508Z,10.65
2023-02-11T23:28:52.041Z,11.30
2023-02-11T23:31:21.751Z,10.77
2023-02-11T23:33:49.534Z,10.65
2023-02-11T23:36:17.958Z,10.73
2023-02-11T23:38:45.609Z,10.53
2023-02-11T23:41:13.001Z,11.52
2023-02-11T23:43:40.971Z,10.27
2023-02-11T23:46:09.211Z,10.82
2023-02-11T23:48:37.598Z,11.07
2023-02-11T23:51:05.140Z,11.13
2023-02-11T23:53:32.483Z,10.80
2023-02-11T23:55:59.653Z,11.40
2023-02-11T23:58:26.842Z,11.02
